sensor_id;sensor_type;location;lat;lon;timestamp;P1;durP1;ratioP1;P2;durP2;ratioP2
76964;SDS011;65903;51.452;7.198;2023-03-12T00:00:23;9.63;;;5.30;;
76964;SDS011;65903;51.452;7.198;2023-03-12T00:01:26;9.40;;;5.10;;
76964;SDS011;65903;51.452;7.198;2023-03-12T00:02:36;7.95;;;5.15;;
76964;SDS011;65903;51.452;7.198;2023-03-12T00:03:39;6.68;;;4.35;;
76964;SDS011;65903;51.452;7.198;2023-03-12T00:04:42;9.10;;;5.85;;
76964;SDS011;65903;51.452;7.198;2023-03-12T00:05:47;9.13;;;5.90;;
76964;SDS011;65903;51.452;7.198;2023-03-12T00:06:47;8.57;;;5.18;;
76964;SDS011;65903;51.452;7.198;2023-03-12T00:07:51;9.70;;;5.32;;
76964;SDS011;65903;51.452;7.198;2023-03-12T00:08:52;10.35;;;5.60;;
76964;SDS011;65903;51.452;7.198;2023-03-12T00:09:55;5.68;;;4.35;;
76964;SDS011;65903;51.452;7.198;2023-03-12T00:10:56;6.47;;;4.35;;
76964;SDS011;65903;51.452;7.198;2023-03-12T00:11:59;6.45;;;4.63;;
76964;SDS011;65903;51.452;7.198;2023-03-12T00:13:00;8.45;;;4.57;;
76964;SDS011;65903;51.452;7.198;2023-03-12T00:14:03;6.78;;;4.28;;
76964;SDS011;65903;51.452;7.198;2023-03-12T00:15:04;6.38;;;5.07;;
76964;SDS011;65903;51.452;7.198;2023-03-12T00:16:10;7.18;;;4.78;;
76964;SDS011;65903;51.452;7.198;2023-03-12T00:17:12;5.60;;;3.83;;
76964;SDS011;65903;51.452;7.198;2023-03-12T00:18:15;5.97;;;4.00;;
76964;SDS011;65903;51.452;7.198;2023-03-12T00:19:16;8.70;;;4.55;;
76964;SDS011;65903;51.452;7.198;2023-03-12T00:20:19;7.90;;;4.45;;
76964;SDS011;65903;51.452;7.198;2023-03-12T00:21:23;7.32;;;3.90;;
76964;SDS011;65903;51.452;7.198;2023-03-12T00:22:24;6.03;;;4.15;;
76964;SDS011;65903;51.452;7.198;2023-03-12T00:23:27;5.85;;;3.63;;
76964;SDS011;65903;51.452;7.198;2023-03-12T00:24:35;6.68;;;3.53;;
76964;SDS011;65903;51.452;7.198;2023-03-12T00:25:36;4.75;;;3.88;;
76964;SDS011;65903;51.452;7.198;2023-03-12T00:26:37;8.23;;;4.90;;
76964;SDS011;65903;51.452;7.198;2023-03-12T00:27:37;8.43;;;4.25;;
76964;SDS011;65903;51.452;7.198;2023-03-12T00:28:39;8.48;;;4.22;;
76964;SDS011;65903;51.452;7.198;2023-03-12T00:29:44;5.43;;;4.03;;
76964;SDS011;65903;51.452;7.198;2023-03-12T00:30:48;4.55;;;3.75;;
76964;SDS011;65903;51.452;7.198;2023-03-12T00:31:55;5.70;;;4.40;;
76964;SDS011;65903;51.452;7.198;2023-03-12T00:32:55;6.13;;;4.35;;
76964;SDS011;65903;51.452;7.198;2023-03-12T00:33:59;6.75;;;3.78;;
76964;SDS011;65903;51.452;7.198;2023-03-12T00:35:05;7.38;;;4.28;;
76964;SDS011;65903;51.452;7.198;2023-03-12T00:36:09;6.28;;;3.95;;
76964;SDS011;65903;51.452;7.198;2023-03-12T00:37:13;5.25;;;3.78;;
76964;SDS011;65903;51.452;7.198;2023-03-12T00:38:13;7.70;;;4.07;;
76964;SDS011;65903;51.452;7.198;2023-03-12T00:39:14;8.00;;;3.28;;
76964;SDS011;65903;51.452;7.198;2023-03-12T00:40:20;5.90;;;3.80;;
76964;SDS011;65903;51.452;7.198;2023-03-12T00:42:23;5.97;;;4.07;;
76964;SDS011;65903;51.452;7.198;2023-03-12T00:43:26;6.65;;;3.97;;
76964;SDS011;65903;51.452;7.198;2023-03-12T00:44:33;5.65;;;3.70;;
76964;SDS011;65903;51.452;7.198;2023-03-12T00:46:39;7.50;;;4.35;;
76964;SDS011;65903;51.452;7.198;2023-03-12T00:47:42;5.68;;;4.18;;
76964;SDS011;65903;51.452;7.198;2023-03-12T00:48:45;6.22;;;4.10;;
76964;SDS011;65903;51.452;7.198;2023-03-12T00:49:47;7.15;;;4.35;;
76964;SDS011;65903;51.452;7.198;2023-03-12T00:51:53;6.07;;;3.53;;
76964;SDS011;65903;51.452;7.198;2023-03-12T00:52:53;6.70;;;3.58;;
76964;SDS011;65903;51.452;7.198;2023-03-12T00:53:54;7.07;;;4.25;;
76964;SDS011;65903;51.452;7.198;2023-03-12T00:54:58;8.40;;;4.07;;
76964;SDS011;65903;51.452;7.198;2023-03-12T00:57:04;5.05;;;3.47;;
76964;SDS011;65903;51.452;7.198;2023-03-12T00:58:07;5.40;;;3.38;;
76964;SDS011;65903;51.452;7.198;2023-03-12T00:59:13;7.70;;;3.90;;
76964;SDS011;65903;51.452;7.198;2023-03-12T01:00:17;4.78;;;3.20;;
76964;SDS011;65903;51.452;7.198;2023-03-12T01:01:20;6.28;;;3.75;;
76964;SDS011;65903;51.452;7.198;2023-03-12T01:02:26;8.43;;;3.53;;
76964;SDS011;65903;51.452;7.198;2023-03-12T01:04:34;8.68;;;3.70;;
76964;SDS011;65903;51.452;7.198;2023-03-12T01:05:37;4.85;;;3.40;;
76964;SDS011;65903;51.452;7.198;2023-03-12T01:06:40;4.15;;;3.25;;
76964;SDS011;65903;51.452;7.198;2023-03-12T01:07:43;5.90;;;3.50;;
76964;SDS011;65903;51.452;7.198;2023-03-12T01:08:46;5.80;;;3.30;;
76964;SDS011;65903;51.452;7.198;2023-03-12T01:09:47;7.05;;;3.00;;
76964;SDS011;65903;51.452;7.198;2023-03-12T01:10:47;4.40;;;3.03;;
76964;SDS011;65903;51.452;7.198;2023-03-12T01:11:50;6.93;;;3.25;;
76964;SDS011;65903;51.452;7.198;2023-03-12T01:12:54;4.75;;;2.80;;
76964;SDS011;65903;51.452;7.198;2023-03-12T01:13:58;4.45;;;3.10;;
76964;SDS011;65903;51.452;7.198;2023-03-12T01:15:02;9.07;;;3.33;;
76964;SDS011;65903;51.452;7.198;2023-03-12T01:16:03;4.70;;;2.95;;
76964;SDS011;65903;51.452;7.198;2023-03-12T01:17:05;5.43;;;2.95;;
76964;SDS011;65903;51.452;7.198;2023-03-12T01:18:08;9.55;;;3.72;;
76964;SDS011;65903;51.452;7.198;2023-03-12T01:19:10;4.28;;;2.65;;
76964;SDS011;65903;51.452;7.198;2023-03-12T01:20:13;6.60;;;3.05;;
76964;SDS011;65903;51.452;7.198;2023-03-12T01:21:16;5.70;;;3.10;;
76964;SDS011;65903;51.452;7.198;2023-03-12T01:22:19;5.60;;;2.80;;
76964;SDS011;65903;51.452;7.198;2023-03-12T01:23:20;6.03;;;3.50;;
76964;SDS011;65903;51.452;7.198;2023-03-12T01:24:23;7.05;;;3.05;;
76964;SDS011;65903;51.452;7.198;2023-03-12T01:25:26;6.10;;;3.40;;
76964;SDS011;65903;51.452;7.198;2023-03-12T01:26:27;3.97;;;2.78;;
76964;SDS011;65903;51.452;7.198;2023-03-12T01:27:27;6.20;;;3.70;;
76964;SDS011;65903;51.452;7.198;2023-03-12T01:28:30;4.68;;;3.15;;
76964;SDS011;65903;51.452;7.198;2023-03-12T01:29:33;5.97;;;3.00;;
76964;SDS011;65903;51.452;7.198;2023-03-12T01:30:34;8.35;;;3.00;;
76964;SDS011;65903;51.452;7.198;2023-03-12T01:31:35;4.88;;;3.00;;
76964;SDS011;65903;51.452;7.198;2023-03-12T01:32:41;5.75;;;2.90;;
76964;SDS011;65903;51.452;7.198;2023-03-12T01:33:47;7.38;;;2.88;;
76964;SDS011;65903;51.452;7.198;2023-03-12T01:34:51;7.57;;;3.25;;
76964;SDS011;65903;51.452;7.198;2023-03-12T01:35:54;6.13;;;3.10;;
76964;SDS011;65903;51.452;7.198;2023-03-12T01:37:00;6.43;;;2.75;;
76964;SDS011;65903;51.452;7.198;2023-03-12T01:38:05;7.78;;;2.97;;
76964;SDS011;65903;51.452;7.198;2023-03-12T01:39:13;5.65;;;3.10;;
76964;SDS011;65903;51.452;7.198;2023-03-12T01:40:15;7.10;;;3.13;;
76964;SDS011;65903;51.452;7.198;2023-03-12T01:41:20;7.00;;;2.78;;
76964;SDS011;65903;51.452;7.198;2023-03-12T01:42:24;6.13;;;3.28;;
76964;SDS011;65903;51.452;7.198;2023-03-12T01:44:30;3.90;;;2.88;;
76964;SDS011;65903;51.452;7.198;2023-03-12T01:46:56;5.75;;;3.05;;
76964;SDS011;65903;51.452;7.198;2023-03-12T01:47:57;5.70;;;2.92;;
76964;SDS011;65903;51.452;7.198;2023-03-12T01:50:09;5.90;;;3.08;;
76964;SDS011;65903;51.452;7.198;2023-03-12T01:51:12;6.50;;;2.90;;
76964;SDS011;65903;51.452;7.198;2023-03-12T01:52:19;6.07;;;2.80;;
76964;SDS011;65903;51.452;7.198;2023-03-12T01:53:30;5.32;;;2.58;;
76964;SDS011;65903;51.452;7.198;2023-03-12T01:55:35;6.43;;;2.67;;
76964;SDS011;65903;51.452;7.198;2023-03-12T01:56:38;5.07;;;2.80;;
76964;SDS011;65903;51.452;7.198;2023-03-12T01:57:42;3.88;;;2.72;;
76964;SDS011;65903;51.452;7.198;2023-03-12T01:58:47;5.82;;;3.13;;
76964;SDS011;65903;51.452;7.198;2023-03-12T01:59:55;5.32;;;2.92;;
76964;SDS011;65903;51.452;7.198;2023-03-12T02:02:02;3.38;;;2.50;;
76964;SDS011;65903;51.452;7.198;2023-03-12T02:03:06;4.38;;;3.03;;
76964;SDS011;65903;51.452;7.198;2023-03-12T02:04:11;4.78;;;3.53;;
76964;SDS011;65903;51.452;7.198;2023-03-12T02:06:35;4.75;;;2.85;;
76964;SDS011;65903;51.452;7.198;2023-03-12T02:07:48;5.57;;;3.10;;
76964;SDS011;65903;51.452;7.198;2023-03-12T02:08:49;5.70;;;2.95;;
76964;SDS011;65903;51.452;7.198;2023-03-12T02:09:53;5.82;;;3.30;;
76964;SDS011;65903;51.452;7.198;2023-03-12T02:10:54;5.78;;;3.13;;
76964;SDS011;65903;51.452;7.198;2023-03-12T02:11:57;4.35;;;3.25;;
76964;SDS011;65903;51.452;7.198;2023-03-12T02:13:01;8.45;;;3.20;;
76964;SDS011;65903;51.452;7.198;2023-03-12T02:14:02;5.15;;;3.45;;
76964;SDS011;65903;51.452;7.198;2023-03-12T02:15:02;6.63;;;3.58;;
76964;SDS011;65903;51.452;7.198;2023-03-12T02:16:03;4.30;;;3.30;;
76964;SDS011;65903;51.452;7.198;2023-03-12T02:17:07;4.50;;;2.60;;
76964;SDS011;65903;51.452;7.198;2023-03-12T02:18:08;4.80;;;2.92;;
76964;SDS011;65903;51.452;7.198;2023-03-12T02:19:31;6.60;;;2.83;;
76964;SDS011;65903;51.452;7.198;2023-03-12T02:21:04;3.83;;;2.60;;
76964;SDS011;65903;51.452;7.198;2023-03-12T02:22:13;4.25;;;2.78;;
76964;SDS011;65903;51.452;7.198;2023-03-12T02:24:38;5.22;;;2.85;;
76964;SDS011;65903;51.452;7.198;2023-03-12T02:25:50;5.72;;;2.70;;
76964;SDS011;65903;51.452;7.198;2023-03-12T02:26:58;5.78;;;3.00;;
76964;SDS011;65903;51.452;7.198;2023-03-12T02:28:01;6.13;;;3.28;;
76964;SDS011;65903;51.452;7.198;2023-03-12T02:29:07;6.25;;;2.50;;
76964;SDS011;65903;51.452;7.198;2023-03-12T02:30:12;4.15;;;2.60;;
76964;SDS011;65903;51.452;7.198;2023-03-12T02:31:19;4.90;;;2.60;;
76964;SDS011;65903;51.452;7.198;2023-03-12T02:32:25;5.47;;;3.30;;
76964;SDS011;65903;51.452;7.198;2023-03-12T02:33:27;5.13;;;3.22;;
76964;SDS011;65903;51.452;7.198;2023-03-12T02:34:30;5.05;;;3.10;;
76964;SDS011;65903;51.452;7.198;2023-03-12T02:35:34;5.10;;;3.08;;
76964;SDS011;65903;51.452;7.198;2023-03-12T02:36:37;5.63;;;2.97;;
76964;SDS011;65903;51.452;7.198;2023-03-12T02:38:54;5.78;;;2.92;;
76964;SDS011;65903;51.452;7.198;2023-03-12T02:40:08;4.47;;;2.85;;
76964;SDS011;65903;51.452;7.198;2023-03-12T02:42:18;6.70;;;2.80;;
76964;SDS011;65903;51.452;7.198;2023-03-12T02:43:19;5.65;;;3.13;;
76964;SDS011;65903;51.452;7.198;2023-03-12T02:44:27;5.07;;;2.70;;
76964;SDS011;65903;51.452;7.198;2023-03-12T02:45:29;6.75;;;3.00;;
76964;SDS011;65903;51.452;7.198;2023-03-12T02:46:31;6.20;;;3.08;;
76964;SDS011;65903;51.452;7.198;2023-03-12T02:47:37;3.85;;;2.90;;
76964;SDS011;65903;51.452;7.198;2023-03-12T02:48:38;4.45;;;3.42;;
76964;SDS011;65903;51.452;7.198;2023-03-12T02:49:43;5.53;;;3.00;;
76964;SDS011;65903;51.452;7.198;2023-03-12T02:50:49;6.28;;;3.30;;
76964;SDS011;65903;51.452;7.198;2023-03-12T02:51:52;7.57;;;3.20;;
76964;SDS011;65903;51.452;7.198;2023-03-12T02:52:55;4.28;;;2.72;;
76964;SDS011;65903;51.452;7.198;2023-03-12T02:53:58;10.77;;;2.95;;
76964;SDS011;65903;51.452;7.198;2023-03-12T02:54:58;7.32;;;3.10;;
76964;SDS011;65903;51.452;7.198;2023-03-12T02:56:01;4.40;;;2.97;;
76964;SDS011;65903;51.452;7.198;2023-03-12T02:57:02;5.07;;;2.90;;
76964;SDS011;65903;51.452;7.198;2023-03-12T02:58:03;4.60;;;2.85;;
76964;SDS011;65903;51.452;7.198;2023-03-12T02:59:04;4.95;;;2.97;;
76964;SDS011;65903;51.452;7.198;2023-03-12T03:00:06;5.20;;;3.22;;
76964;SDS011;65903;51.452;7.198;2023-03-12T03:01:12;5.20;;;2.80;;
76964;SDS011;65903;51.452;7.198;2023-03-12T03:02:12;5.05;;;2.83;;
76964;SDS011;65903;51.452;7.198;2023-03-12T03:03:15;5.95;;;2.60;;
76964;SDS011;65903;51.452;7.198;2023-03-12T03:04:16;4.57;;;2.92;;
76964;SDS011;65903;51.452;7.198;2023-03-12T03:05:19;4.28;;;2.88;;
76964;SDS011;65903;51.452;7.198;2023-03-12T03:06:20;4.88;;;2.95;;
76964;SDS011;65903;51.452;7.198;2023-03-12T03:07:21;7.95;;;2.83;;
76964;SDS011;65903;51.452;7.198;2023-03-12T03:08:24;4.88;;;3.05;;
76964;SDS011;65903;51.452;7.198;2023-03-12T03:09:25;9.30;;;4.47;;
76964;SDS011;65903;51.452;7.198;2023-03-12T03:10:29;5.10;;;3.20;;
76964;SDS011;65903;51.452;7.198;2023-03-12T03:11:33;4.18;;;2.75;;
76964;SDS011;65903;51.452;7.198;2023-03-12T03:12:34;6.43;;;3.03;;
76964;SDS011;65903;51.452;7.198;2023-03-12T03:13:37;5.35;;;2.80;;
76964;SDS011;65903;51.452;7.198;2023-03-12T03:14:41;4.18;;;2.55;;
76964;SDS011;65903;51.452;7.198;2023-03-12T03:15:41;5.85;;;2.88;;
76964;SDS011;65903;51.452;7.198;2023-03-12T03:16:42;4.72;;;2.80;;
76964;SDS011;65903;51.452;7.198;2023-03-12T03:17:46;6.32;;;2.65;;
76964;SDS011;65903;51.452;7.198;2023-03-12T03:18:46;4.95;;;2.90;;
76964;SDS011;65903;51.452;7.198;2023-03-12T03:19:47;6.28;;;2.75;;
76964;SDS011;65903;51.452;7.198;2023-03-12T03:21:05;4.88;;;2.90;;
76964;SDS011;65903;51.452;7.198;2023-03-12T03:22:06;5.45;;;2.97;;
76964;SDS011;65903;51.452;7.198;2023-03-12T03:23:09;5.40;;;2.88;;
76964;SDS011;65903;51.452;7.198;2023-03-12T03:24:15;4.35;;;2.53;;
76964;SDS011;65903;51.452;7.198;2023-03-12T03:25:18;5.35;;;2.78;;
76964;SDS011;65903;51.452;7.198;2023-03-12T03:26:24;5.13;;;2.80;;
76964;SDS011;65903;51.452;7.198;2023-03-12T03:27:29;7.85;;;2.95;;
76964;SDS011;65903;51.452;7.198;2023-03-12T03:28:33;7.00;;;2.80;;
76964;SDS011;65903;51.452;7.198;2023-03-12T03:29:36;5.43;;;3.15;;
76964;SDS011;65903;51.452;7.198;2023-03-12T03:30:36;6.53;;;2.80;;
76964;SDS011;65903;51.452;7.198;2023-03-12T03:31:42;4.00;;;2.70;;
76964;SDS011;65903;51.452;7.198;2023-03-12T03:32:43;6.15;;;3.13;;
76964;SDS011;65903;51.452;7.198;2023-03-12T03:33:43;4.22;;;3.28;;
76964;SDS011;65903;51.452;7.198;2023-03-12T03:34:45;5.05;;;3.10;;
76964;SDS011;65903;51.452;7.198;2023-03-12T03:35:46;7.40;;;4.22;;
76964;SDS011;65903;51.452;7.198;2023-03-12T03:36:47;5.72;;;2.80;;
76964;SDS011;65903;51.452;7.198;2023-03-12T03:37:48;5.57;;;2.60;;
76964;SDS011;65903;51.452;7.198;2023-03-12T03:38:51;5.20;;;2.53;;
76964;SDS011;65903;51.452;7.198;2023-03-12T03:39:52;5.55;;;2.50;;
76964;SDS011;65903;51.452;7.198;2023-03-12T03:40:53;4.07;;;2.33;;
76964;SDS011;65903;51.452;7.198;2023-03-12T03:41:55;8.23;;;2.80;;
76964;SDS011;65903;51.452;7.198;2023-03-12T03:42:56;5.28;;;2.72;;
76964;SDS011;65903;51.452;7.198;2023-03-12T03:43:57;3.30;;;2.40;;
76964;SDS011;65903;51.452;7.198;2023-03-12T03:45:02;4.78;;;2.63;;
76964;SDS011;65903;51.452;7.198;2023-03-12T03:46:08;3.95;;;2.92;;
76964;SDS011;65903;51.452;7.198;2023-03-12T03:47:12;3.53;;;2.33;;
76964;SDS011;65903;51.452;7.198;2023-03-12T03:48:13;5.25;;;2.72;;
76964;SDS011;65903;51.452;7.198;2023-03-12T03:49:14;3.67;;;2.50;;
76964;SDS011;65903;51.452;7.198;2023-03-12T03:50:16;4.43;;;2.75;;
76964;SDS011;65903;51.452;7.198;2023-03-12T03:52:22;4.38;;;2.40;;
76964;SDS011;65903;51.452;7.198;2023-03-12T03:54:28;7.65;;;2.75;;
76964;SDS011;65903;51.452;7.198;2023-03-12T03:55:39;4.00;;;2.45;;
76964;SDS011;65903;51.452;7.198;2023-03-12T03:56:39;3.63;;;2.60;;
76964;SDS011;65903;51.452;7.198;2023-03-12T03:57:43;5.82;;;2.88;;
76964;SDS011;65903;51.452;7.198;2023-03-12T03:58:46;5.75;;;2.90;;
76964;SDS011;65903;51.452;7.198;2023-03-12T03:59:46;5.78;;;3.28;;
76964;SDS011;65903;51.452;7.198;2023-03-12T04:00:49;5.25;;;3.05;;
76964;SDS011;65903;51.452;7.198;2023-03-12T04:01:53;6.60;;;3.00;;
76964;SDS011;65903;51.452;7.198;2023-03-12T04:02:53;4.53;;;2.75;;
76964;SDS011;65903;51.452;7.198;2023-03-12T04:03:56;6.03;;;3.03;;
76964;SDS011;65903;51.452;7.198;2023-03-12T04:05:04;7.50;;;2.83;;
76964;SDS011;65903;51.452;7.198;2023-03-12T04:06:06;4.93;;;2.80;;
76964;SDS011;65903;51.452;7.198;2023-03-12T04:07:09;3.33;;;2.38;;
76964;SDS011;65903;51.452;7.198;2023-03-12T04:09:15;4.80;;;2.70;;
76964;SDS011;65903;51.452;7.198;2023-03-12T04:10:22;5.72;;;2.60;;
76964;SDS011;65903;51.452;7.198;2023-03-12T04:11:24;5.68;;;2.85;;
76964;SDS011;65903;51.452;7.198;2023-03-12T04:12:30;4.63;;;2.70;;
76964;SDS011;65903;51.452;7.198;2023-03-12T04:13:31;6.00;;;2.78;;
76964;SDS011;65903;51.452;7.198;2023-03-12T04:14:32;4.40;;;2.72;;
76964;SDS011;65903;51.452;7.198;2023-03-12T04:15:33;4.72;;;2.72;;
76964;SDS011;65903;51.452;7.198;2023-03-12T04:16:34;8.40;;;2.75;;
76964;SDS011;65903;51.452;7.198;2023-03-12T04:17:34;5.55;;;2.80;;
76964;SDS011;65903;51.452;7.198;2023-03-12T04:18:35;4.70;;;2.90;;
76964;SDS011;65903;51.452;7.198;2023-03-12T04:19:39;7.63;;;3.03;;
76964;SDS011;65903;51.452;7.198;2023-03-12T04:20:43;7.88;;;2.83;;
76964;SDS011;65903;51.452;7.198;2023-03-12T04:21:43;4.15;;;2.53;;
76964;SDS011;65903;51.452;7.198;2023-03-12T04:23:47;8.27;;;3.15;;
76964;SDS011;65903;51.452;7.198;2023-03-12T04:24:50;6.60;;;3.03;;
76964;SDS011;65903;51.452;7.198;2023-03-12T04:26:54;3.92;;;2.72;;
76964;SDS011;65903;51.452;7.198;2023-03-12T04:27:54;5.63;;;2.72;;
76964;SDS011;65903;51.452;7.198;2023-03-12T04:28:55;6.70;;;3.17;;
76964;SDS011;65903;51.452;7.198;2023-03-12T04:30:03;3.78;;;2.20;;
76964;SDS011;65903;51.452;7.198;2023-03-12T04:31:07;6.75;;;3.17;;
76964;SDS011;65903;51.452;7.198;2023-03-12T04:32:08;6.15;;;2.58;;
76964;SDS011;65903;51.452;7.198;2023-03-12T04:33:09;4.90;;;2.83;;
76964;SDS011;65903;51.452;7.198;2023-03-12T04:34:10;6.10;;;3.17;;
76964;SDS011;65903;51.452;7.198;2023-03-12T04:35:14;5.50;;;2.88;;
76964;SDS011;65903;51.452;7.198;2023-03-12T04:36:15;6.47;;;2.75;;
76964;SDS011;65903;51.452;7.198;2023-03-12T04:37:16;5.43;;;3.30;;
76964;SDS011;65903;51.452;7.198;2023-03-12T04:38:17;9.95;;;3.10;;
76964;SDS011;65903;51.452;7.198;2023-03-12T04:39:19;4.22;;;2.90;;
76964;SDS011;65903;51.452;7.198;2023-03-12T04:40:22;4.40;;;2.63;;
76964;SDS011;65903;51.452;7.198;2023-03-12T04:41:24;4.00;;;3.30;;
76964;SDS011;65903;51.452;7.198;2023-03-12T04:42:27;4.15;;;2.80;;
76964;SDS011;65903;51.452;7.198;2023-03-12T04:43:31;5.13;;;3.03;;
76964;SDS011;65903;51.452;7.198;2023-03-12T04:44:34;5.68;;;2.60;;
76964;SDS011;65903;51.452;7.198;2023-03-12T04:45:36;6.45;;;2.53;;
76964;SDS011;65903;51.452;7.198;2023-03-12T04:46:39;5.90;;;2.83;;
76964;SDS011;65903;51.452;7.198;2023-03-12T04:47:42;6.63;;;2.88;;
76964;SDS011;65903;51.452;7.198;2023-03-12T04:48:45;4.82;;;2.80;;
76964;SDS011;65903;51.452;7.198;2023-03-12T04:49:47;7.47;;;2.90;;
76964;SDS011;65903;51.452;7.198;2023-03-12T04:51:50;7.57;;;3.05;;
76964;SDS011;65903;51.452;7.198;2023-03-12T04:52:53;3.65;;;2.65;;
76964;SDS011;65903;51.452;7.198;2023-03-12T04:53:57;3.75;;;2.58;;
76964;SDS011;65903;51.452;7.198;2023-03-12T04:55:00;7.53;;;2.67;;
76964;SDS011;65903;51.452;7.198;2023-03-12T04:56:06;4.32;;;2.80;;
76964;SDS011;65903;51.452;7.198;2023-03-12T04:58:12;4.55;;;2.50;;
76964;SDS011;65903;51.452;7.198;2023-03-12T04:59:18;5.85;;;3.00;;
76964;SDS011;65903;51.452;7.198;2023-03-12T05:00:23;5.18;;;2.22;;
76964;SDS011;65903;51.452;7.198;2023-03-12T05:02:29;5.20;;;3.20;;
76964;SDS011;65903;51.452;7.198;2023-03-12T05:03:30;5.05;;;2.90;;
76964;SDS011;65903;51.452;7.198;2023-03-12T05:04:34;4.07;;;2.55;;
76964;SDS011;65903;51.452;7.198;2023-03-12T05:05:35;4.35;;;2.42;;
76964;SDS011;65903;51.452;7.198;2023-03-12T05:06:38;5.40;;;3.00;;
76964;SDS011;65903;51.452;7.198;2023-03-12T05:07:39;4.38;;;2.85;;
76964;SDS011;65903;51.452;7.198;2023-03-12T05:08:43;4.78;;;2.47;;
76964;SDS011;65903;51.452;7.198;2023-03-12T05:09:44;4.80;;;2.20;;
76964;SDS011;65903;51.452;7.198;2023-03-12T05:10:52;3.83;;;2.30;;
76964;SDS011;65903;51.452;7.198;2023-03-12T05:11:56;5.18;;;2.97;;
76964;SDS011;65903;51.452;7.198;2023-03-12T05:13:00;4.30;;;2.33;;
76964;SDS011;65903;51.452;7.198;2023-03-12T05:14:01;4.35;;;2.50;;
76964;SDS011;65903;51.452;7.198;2023-03-12T05:15:04;6.22;;;2.97;;
76964;SDS011;65903;51.452;7.198;2023-03-12T05:16:08;5.50;;;2.83;;
76964;SDS011;65903;51.452;7.198;2023-03-12T05:17:11;4.68;;;2.40;;
76964;SDS011;65903;51.452;7.198;2023-03-12T05:18:12;4.45;;;2.67;;
76964;SDS011;65903;51.452;7.198;2023-03-12T05:19:13;6.28;;;3.03;;
76964;SDS011;65903;51.452;7.198;2023-03-12T05:20:14;4.20;;;2.83;;
76964;SDS011;65903;51.452;7.198;2023-03-12T05:21:18;7.25;;;2.30;;
76964;SDS011;65903;51.452;7.198;2023-03-12T05:22:20;5.88;;;2.78;;
76964;SDS011;65903;51.452;7.198;2023-03-12T05:23:20;5.72;;;2.70;;
76964;SDS011;65903;51.452;7.198;2023-03-12T05:24:23;4.70;;;2.70;;
76964;SDS011;65903;51.452;7.198;2023-03-12T05:25:28;4.60;;;2.60;;
76964;SDS011;65903;51.452;7.198;2023-03-12T05:26:30;3.60;;;2.63;;
76964;SDS011;65903;51.452;7.198;2023-03-12T05:27:34;9.27;;;3.08;;
76964;SDS011;65903;51.452;7.198;2023-03-12T05:28:38;5.90;;;3.00;;
76964;SDS011;65903;51.452;7.198;2023-03-12T05:29:43;5.10;;;2.70;;
76964;SDS011;65903;51.452;7.198;2023-03-12T05:30:43;4.25;;;2.40;;
76964;SDS011;65903;51.452;7.198;2023-03-12T05:31:44;6.28;;;2.30;;
76964;SDS011;65903;51.452;7.198;2023-03-12T05:32:44;3.42;;;2.40;;
76964;SDS011;65903;51.452;7.198;2023-03-12T05:33:45;5.18;;;2.53;;
76964;SDS011;65903;51.452;7.198;2023-03-12T05:34:51;8.27;;;2.85;;
76964;SDS011;65903;51.452;7.198;2023-03-12T05:35:52;5.78;;;2.60;;
76964;SDS011;65903;51.452;7.198;2023-03-12T05:36:52;4.55;;;2.80;;
76964;SDS011;65903;51.452;7.198;2023-03-12T05:37:55;6.18;;;3.13;;
76964;SDS011;65903;51.452;7.198;2023-03-12T05:38:55;5.07;;;2.53;;
76964;SDS011;65903;51.452;7.198;2023-03-12T05:39:56;4.10;;;2.55;;
76964;SDS011;65903;51.452;7.198;2023-03-12T05:41:00;7.15;;;3.00;;
76964;SDS011;65903;51.452;7.198;2023-03-12T05:42:03;5.55;;;3.08;;
76964;SDS011;65903;51.452;7.198;2023-03-12T05:43:05;4.38;;;2.60;;
76964;SDS011;65903;51.452;7.198;2023-03-12T05:44:09;4.05;;;2.75;;
76964;SDS011;65903;51.452;7.198;2023-03-12T05:45:15;4.93;;;2.70;;
76964;SDS011;65903;51.452;7.198;2023-03-12T05:46:16;4.93;;;2.60;;
76964;SDS011;65903;51.452;7.198;2023-03-12T05:47:20;4.78;;;2.50;;
76964;SDS011;65903;51.452;7.198;2023-03-12T05:48:21;4.40;;;2.65;;
76964;SDS011;65903;51.452;7.198;2023-03-12T05:49:24;7.00;;;2.60;;
76964;SDS011;65903;51.452;7.198;2023-03-12T05:50:25;5.93;;;2.45;;
76964;SDS011;65903;51.452;7.198;2023-03-12T05:51:25;14.60;;;3.05;;
76964;SDS011;65903;51.452;7.198;2023-03-12T05:52:28;7.43;;;2.88;;
76964;SDS011;65903;51.452;7.198;2023-03-12T05:53:29;3.40;;;2.53;;
76964;SDS011;65903;51.452;7.198;2023-03-12T05:54:30;3.72;;;2.70;;
76964;SDS011;65903;51.452;7.198;2023-03-12T05:55:38;4.32;;;2.38;;
76964;SDS011;65903;51.452;7.198;2023-03-12T05:57:44;4.93;;;2.40;;
76964;SDS011;65903;51.452;7.198;2023-03-12T05:58:49;4.47;;;3.10;;
76964;SDS011;65903;51.452;7.198;2023-03-12T05:59:52;3.85;;;2.50;;
76964;SDS011;65903;51.452;7.198;2023-03-12T06:00:53;6.72;;;2.50;;
76964;SDS011;65903;51.452;7.198;2023-03-12T06:02:57;5.32;;;2.63;;
76964;SDS011;65903;51.452;7.198;2023-03-12T06:03:58;9.13;;;3.40;;
76964;SDS011;65903;51.452;7.198;2023-03-12T06:04:59;3.95;;;2.67;;
76964;SDS011;65903;51.452;7.198;2023-03-12T06:06:00;4.57;;;2.90;;
76964;SDS011;65903;51.452;7.198;2023-03-12T06:07:00;6.97;;;2.80;;
76964;SDS011;65903;51.452;7.198;2023-03-12T06:08:01;4.35;;;2.40;;
76964;SDS011;65903;51.452;7.198;2023-03-12T06:09:03;6.63;;;2.60;;
76964;SDS011;65903;51.452;7.198;2023-03-12T06:10:07;7.38;;;2.05;;
76964;SDS011;65903;51.452;7.198;2023-03-12T06:11:11;7.00;;;2.80;;
76964;SDS011;65903;51.452;7.198;2023-03-12T06:12:12;5.95;;;2.83;;
76964;SDS011;65903;51.452;7.198;2023-03-12T06:13:13;7.22;;;2.88;;
76964;SDS011;65903;51.452;7.198;2023-03-12T06:14:14;5.10;;;2.80;;
76964;SDS011;65903;51.452;7.198;2023-03-12T06:15:14;4.45;;;2.75;;
76964;SDS011;65903;51.452;7.198;2023-03-12T06:16:22;4.85;;;2.80;;
76964;SDS011;65903;51.452;7.198;2023-03-12T06:17:24;4.78;;;2.55;;
76964;SDS011;65903;51.452;7.198;2023-03-12T06:18:25;4.28;;;2.45;;
76964;SDS011;65903;51.452;7.198;2023-03-12T06:19:26;5.25;;;2.60;;
76964;SDS011;65903;51.452;7.198;2023-03-12T06:21:31;3.90;;;2.53;;
76964;SDS011;65903;51.452;7.198;2023-03-12T06:22:33;4.35;;;2.80;;
76964;SDS011;65903;51.452;7.198;2023-03-12T06:23:34;5.97;;;2.70;;
76964;SDS011;65903;51.452;7.198;2023-03-12T06:24:37;6.05;;;2.72;;
76964;SDS011;65903;51.452;7.198;2023-03-12T06:25:38;5.88;;;2.55;;
76964;SDS011;65903;51.452;7.198;2023-03-12T06:26:39;5.70;;;2.63;;
76964;SDS011;65903;51.452;7.198;2023-03-12T06:27:40;7.75;;;2.88;;
76964;SDS011;65903;51.452;7.198;2023-03-12T06:28:41;4.72;;;2.58;;
76964;SDS011;65903;51.452;7.198;2023-03-12T06:29:42;5.68;;;2.63;;
76964;SDS011;65903;51.452;7.198;2023-03-12T06:30:46;8.00;;;2.50;;
76964;SDS011;65903;51.452;7.198;2023-03-12T06:31:47;6.07;;;3.28;;
76964;SDS011;65903;51.452;7.198;2023-03-12T06:32:51;7.75;;;3.17;;
76964;SDS011;65903;51.452;7.198;2023-03-12T06:33:52;4.60;;;2.97;;
76964;SDS011;65903;51.452;7.198;2023-03-12T06:34:53;6.38;;;2.90;;
76964;SDS011;65903;51.452;7.198;2023-03-12T06:35:54;7.28;;;2.45;;
76964;SDS011;65903;51.452;7.198;2023-03-12T06:36:56;5.25;;;2.80;;
76964;SDS011;65903;51.452;7.198;2023-03-12T06:37:57;6.22;;;3.42;;
76964;SDS011;65903;51.452;7.198;2023-03-12T06:38:58;5.45;;;3.20;;
76964;SDS011;65903;51.452;7.198;2023-03-12T06:39:59;6.43;;;2.70;;
76964;SDS011;65903;51.452;7.198;2023-03-12T06:41:01;4.47;;;2.72;;
76964;SDS011;65903;51.452;7.198;2023-03-12T06:42:06;8.20;;;2.85;;
76964;SDS011;65903;51.452;7.198;2023-03-12T06:43:07;5.75;;;3.03;;
76964;SDS011;65903;51.452;7.198;2023-03-12T06:44:13;4.45;;;3.38;;
76964;SDS011;65903;51.452;7.198;2023-03-12T06:45:15;7.80;;;3.25;;
76964;SDS011;65903;51.452;7.198;2023-03-12T06:46:19;7.68;;;3.72;;
76964;SDS011;65903;51.452;7.198;2023-03-12T06:47:24;5.35;;;2.42;;